createdAt,value
2022-08-10T00:00:08.608Z,64.61
2022-08-10T00:01:08.657Z,64.61
2022-08-10T00:02:08.591Z,64.41
2022-08-10T00:03:08.618Z,64.51
2022-08-10T00:04:08.540Z,64.54
2022-08-10T00:05:08.921Z,64.64
2022-08-10T00:06:08.510Z,64.64
2022-08-10T00:07:08.490Z,65.05
2022-08-10T00:08:08.480Z,64.84
2022-08-10T00:09:08.470Z,65.15
2022-08-10T00:10:08.789Z,65.25
2022-08-10T00:11:15.486Z,65.35
2022-08-10T00:12:09.437Z,65.55
2022-08-10T00:13:08.420Z,65.05
2022-08-10T00:14:08.399Z,64.95
2022-08-10T00:15:08.819Z,65.25
2022-08-10T00:16:08.379Z,65.25
2022-08-10T00:17:08.367Z,65.45
2022-08-10T00:18:08.368Z,65.75
2022-08-10T00:19:08.349Z,65.65
2022-08-10T00:20:08.479Z,65.68
2022-08-10T00:21:08.813Z,65.99
2022-08-10T00:22:08.296Z,66.08
2022-08-10T00:23:08.278Z,66.39
2022-08-10T00:24:08.278Z,66.39
2022-08-10T00:25:08.244Z,66.39
2022-08-10T00:26:08.267Z,66.49
2022-08-10T00:28:01.473Z,67.02
2022-08-10T00:28:09.206Z,66.72
2022-08-10T00:29:09.224Z,66.72
2022-08-10T00:30:08.187Z,66.72
2022-08-10T00:31:08.179Z,66.82
2022-08-10T00:32:08.202Z,66.82
2022-08-10T00:33:08.598Z,66.93
2022-08-10T00:34:08.137Z,67.23
2022-08-10T00:35:08.115Z,66.72
2022-08-10T00:36:08.107Z,66.82
2022-08-10T00:37:08.115Z,67.13
2022-08-10T00:38:08.096Z,67.23
2022-08-10T00:39:11.993Z,67.23
2022-08-10T00:40:09.140Z,66.93
2022-08-10T00:41:08.054Z,66.49
2022-08-10T00:42:08.261Z,66.39
2022-08-10T00:43:08.017Z,66.19
2022-08-10T00:44:08.395Z,65.85
2022-08-10T00:45:07.968Z,65.85
2022-08-10T00:46:07.976Z,65.55
2022-08-10T00:47:20.705Z,65.55
2022-08-10T00:48:08.935Z,65.65
2022-08-10T00:49:07.944Z,65.65
2022-08-10T00:50:08.293Z,65.95
2022-08-10T00:51:07.902Z,66.79
2022-08-10T00:52:07.914Z,66.69
2022-08-10T00:53:07.904Z,66.39
2022-08-10T00:54:07.873Z,66.46
2022-08-10T00:55:09.283Z,66.25
2022-08-10T00:56:34.963Z,66.46
2022-08-10T00:57:16.914Z,66.25
2022-08-10T00:58:08.823Z,66.39
2022-08-10T00:59:07.786Z,66.49
2022-08-10T01:00:07.782Z,66.79
2022-08-10T01:01:11.674Z,66.79
2022-08-10T01:02:11.634Z,66.79
2022-08-10T01:03:07.757Z,66.79
2022-08-10T01:04:57.948Z,66.69
2022-08-10T01:05:08.745Z,66.39
2022-08-10T01:06:08.135Z,66.29
2022-08-10T01:07:08.712Z,66.59
2022-08-10T01:08:07.692Z,66.79
2022-08-10T01:09:07.692Z,66.99
2022-08-10T01:10:07.691Z,67.10
2022-08-10T01:11:07.647Z,67.13
2022-08-10T01:12:40.643Z,67.53
2022-08-10T01:13:08.627Z,67.53
2022-08-10T01:14:07.590Z,67.43
2022-08-10T01:15:07.601Z,67.43
2022-08-10T01:16:07.598Z,67.53
2022-08-10T01:17:08.579Z,67.63
2022-08-10T01:18:07.900Z,67.83
2022-08-10T01:19:07.550Z,67.83
2022-08-10T01:20:07.549Z,67.93
2022-08-10T01:21:07.510Z,68.04
2022-08-10T01:22:07.531Z,68.24
2022-08-10T01:23:07.920Z,68.27
2022-08-10T01:24:07.498Z,68.47
2022-08-10T01:25:07.451Z,68.57
2022-08-10T01:26:11.633Z,68.67
2022-08-10T01:27:08.438Z,68.67
2022-08-10T01:28:07.838Z,68.67
2022-08-10T01:29:07.388Z,68.77
2022-08-10T01:30:07.439Z,68.57
2022-08-10T01:31:07.389Z,68.98
2022-08-10T01:32:09.016Z,68.87
2022-08-10T01:33:07.739Z,68.98
2022-08-10T01:34:07.368Z,69.08
2022-08-10T01:35:07.338Z,68.77
2022-08-10T01:36:07.310Z,68.67
2022-08-10T01:37:07.300Z,68.57
2022-08-10T01:38:07.278Z,68.57
2022-08-10T01:39:07.752Z,68.67
2022-08-10T01:40:07.274Z,68.77
2022-08-10T01:41:07.247Z,68.98
2022-08-10T01:42:07.247Z,69.18
2022-08-10T01:43:08.360Z,69.31
2022-08-10T01:44:07.215Z,69.31
2022-08-10T01:45:07.616Z,69.71
2022-08-10T01:46:07.174Z,69.92
2022-08-10T01:47:07.175Z,69.92
2022-08-10T01:48:16.751Z,70.32
2022-08-10T01:49:08.138Z,70.42
2022-08-10T01:50:07.133Z,70.76
2022-08-10T01:51:07.564Z,70.86
2022-08-10T01:52:07.133Z,70.86
2022-08-10T01:53:07.125Z,70.86
2022-08-10T01:54:10.753Z,71.06
2022-08-10T01:55:08.047Z,71.17
2022-08-10T01:56:07.406Z,71.17
2022-08-10T01:57:07.045Z,70.76
2022-08-10T01:58:07.021Z,71.06
2022-08-10T01:59:07.023Z,71.06
2022-08-10T02:00:07.031Z,71.17
2022-08-10T02:01:07.402Z,71.47
2022-08-10T02:02:07.361Z,71.17
2022-08-10T02:03:06.973Z,70.96
2022-08-10T02:04:06.944Z,71.17
2022-08-10T02:05:06.934Z,71.17
2022-08-10T02:06:07.353Z,71.37
2022-08-10T02:07:06.910Z,71.06
2022-08-10T02:08:06.892Z,70.96
2022-08-10T02:09:07.265Z,70.96
2022-08-10T02:10:06.903Z,70.96
2022-08-10T02:11:07.239Z,71.06
2022-08-10T02:12:08.818Z,71.26
2022-08-10T02:13:06.843Z,71.26
2022-08-10T02:14:06.813Z,71.26
2022-08-10T02:15:06.850Z,71.17
2022-08-10T02:16:07.209Z,71.57
2022-08-10T02:17:06.764Z,71.70
2022-08-10T02:18:06.765Z,71.50
2022-08-10T02:19:06.752Z,71.60
2022-08-10T02:20:07.760Z,71.70
2022-08-10T02:21:07.230Z,72.11
2022-08-10T02:22:36.860Z,72.41
2022-08-10T02:23:07.700Z,72.61
2022-08-10T02:24:06.668Z,72.72
2022-08-10T02:25:06.650Z,72.41
2022-08-10T02:26:07.117Z,72.41
2022-08-10T02:27:06.689Z,72.72
2022-08-10T02:28:06.671Z,72.51
2022-08-10T02:29:06.630Z,72.51
2022-08-10T02:30:07.015Z,72.41
2022-08-10T02:31:06.905Z,72.34
2022-08-10T02:32:06.623Z,72.55
2022-08-10T02:33:06.579Z,72.95
2022-08-10T02:34:06.559Z,72.95
2022-08-10T02:35:06.999Z,73.05
2022-08-10T02:36:06.549Z,73.25
2022-08-10T02:37:10.668Z,73.59
2022-08-10T02:38:06.480Z,73.90
2022-08-10T02:39:06.516Z,73.90
2022-08-10T02:40:06.868Z,73.59
2022-08-10T02:45:12.255Z,73.59
2022-08-10T02:45:15.316Z,73.36
2022-08-10T02:45:19.722Z,73.66
2022-08-10T02:45:22.578Z,73.36
2022-08-10T02:45:22.802Z,73.56
2022-08-10T02:46:07.357Z,73.56
2022-08-10T02:47:06.334Z,73.66
2022-08-10T02:48:06.469Z,72.95
2022-08-10T02:49:06.317Z,72.72
2022-08-10T02:50:06.685Z,72.72
2022-08-10T02:51:06.466Z,72.72
2022-08-10T02:52:08.995Z,72.85
2022-08-10T02:53:06.434Z,72.85
2022-08-10T02:54:06.363Z,72.95
2022-08-10T02:55:18.429Z,72.75
2022-08-10T02:56:07.686Z,72.95
2022-08-10T02:57:06.205Z,72.75
2022-08-10T02:58:13.850Z,72.85
2022-08-10T02:59:07.194Z,72.95
2022-08-10T03:00:06.175Z,73.25
2022-08-10T03:01:06.220Z,73.36
2022-08-10T03:02:06.662Z,73.46
2022-08-10T03:03:06.145Z,73.39
2022-08-10T03:04:06.128Z,73.69
2022-08-10T03:05:06.113Z,73.80
2022-08-10T03:06:06.094Z,73.80
2022-08-10T03:07:06.452Z,74.00
2022-08-10T03:08:06.122Z,74.00
2022-08-10T03:09:06.083Z,74.13
2022-08-10T03:10:13.224Z,74.24
2022-08-10T03:11:07.041Z,74.33
2022-08-10T03:12:36.684Z,74.74
2022-08-10T03:13:06.993Z,74.54
2022-08-10T03:14:06.002Z,74.54
2022-08-10T03:15:05.994Z,74.44
2022-08-10T03:16:05.992Z,74.64
2022-08-10T03:17:05.941Z,74.74
2022-08-10T03:18:06.371Z,74.33
2022-08-10T03:19:05.941Z,74.64
2022-08-10T03:20:38.215Z,74.33
2022-08-10T03:21:11.361Z,75.18
2022-08-10T03:22:07.221Z,75.69
2022-08-10T03:23:05.871Z,76.20
2022-08-10T03:24:24.822Z,76.80
2022-08-10T03:25:06.851Z,77.82
2022-08-10T03:26:05.850Z,78.33
2022-08-10T03:27:05.810Z,78.73
2022-08-10T03:28:05.780Z,78.33
2022-08-10T03:29:06.169Z,77.41
2022-08-10T03:30:28.477Z,76.60
2022-08-10T03:31:06.760Z,75.79
2022-08-10T03:32:05.781Z,76.40
2022-08-10T03:33:06.195Z,76.60
2022-08-10T03:34:05.710Z,76.50
2022-08-10T03:35:06.700Z,76.60
2022-08-10T03:36:42.691Z,76.60
2022-08-10T03:37:06.696Z,76.60
2022-08-10T03:38:06.058Z,76.40
2022-08-10T03:39:05.705Z,76.50
2022-08-10T03:40:05.629Z,76.70
2022-08-10T03:41:05.612Z,76.90
2022-08-10T03:42:05.604Z,76.60
2022-08-10T03:43:06.017Z,76.74
2022-08-10T03:44:05.568Z,76.74
2022-08-10T03:45:05.567Z,76.74
2022-08-10T03:46:05.568Z,76.94
2022-08-10T03:47:15.933Z,77.04
2022-08-10T03:48:06.938Z,77.04
2022-08-10T03:49:05.506Z,77.28
2022-08-10T03:50:27.673Z,77.59
2022-08-10T03:51:06.504Z,77.69
2022-08-10T03:52:05.462Z,77.79
2022-08-10T03:53:05.775Z,77.79
2022-08-10T03:54:07.186Z,77.89
2022-08-10T03:55:05.437Z,77.99
2022-08-10T03:56:29.789Z,77.79
2022-08-10T03:57:06.404Z,77.99
2022-08-10T03:58:05.818Z,77.59
2022-08-10T03:59:05.373Z,78.40
2022-08-10T04:00:06.144Z,77.99
2022-08-10T04:01:05.389Z,78.80
2022-08-10T04:02:43.206Z,79.00
2022-08-10T04:03:06.355Z,79.31
2022-08-10T04:04:13.089Z,78.74
2022-08-10T04:05:06.321Z,79.04
2022-08-10T04:06:05.294Z,79.85
2022-08-10T04:07:05.279Z,80.57
2022-08-10T04:08:05.718Z,81.07
2022-08-10T04:09:05.274Z,81.07
2022-08-10T04:10:05.259Z,81.38
2022-08-10T04:11:05.223Z,81.18
2022-08-10T04:12:05.232Z,81.07
2022-08-10T04:13:05.211Z,81.58
2022-08-10T04:14:05.637Z,80.97
2022-08-10T04:15:05.211Z,80.16
2022-08-10T04:16:07.382Z,80.46
2022-08-10T04:17:05.181Z,80.66
2022-08-10T04:18:06.534Z,79.85
2022-08-10T04:19:05.149Z,79.55
2022-08-10T04:20:05.513Z,79.35
2022-08-10T04:21:05.100Z,79.04
2022-08-10T04:22:05.109Z,79.45
2022-08-10T04:23:05.119Z,79.55
2022-08-10T04:24:05.079Z,79.75
2022-08-10T04:25:05.082Z,79.65
2022-08-10T04:26:05.137Z,79.96
2022-08-10T04:27:05.037Z,80.06
2022-08-10T04:28:05.010Z,79.96
2022-08-10T04:29:04.998Z,79.55
2022-08-10T04:30:05.020Z,79.75
2022-08-10T04:31:04.978Z,79.65
2022-08-10T04:32:05.398Z,79.55
2022-08-10T04:33:04.986Z,79.45
2022-08-10T04:34:08.715Z,79.45
2022-08-10T04:35:04.943Z,79.25
2022-08-10T04:36:04.898Z,79.14
2022-08-10T04:37:08.881Z,79.25
2022-08-10T04:38:04.880Z,79.04
2022-08-10T04:39:04.916Z,79.14
2022-08-10T04:40:04.856Z,79.14
2022-08-10T04:41:05.856Z,78.74
2022-08-10T04:42:04.819Z,79.00
2022-08-10T04:43:11.920Z,79.11
2022-08-10T04:44:05.837Z,79.41
2022-08-10T04:45:04.776Z,79.51
2022-08-10T04:46:04.844Z,80.22
2022-08-10T04:47:05.786Z,80.22
2022-08-10T04:48:04.754Z,80.22
2022-08-10T04:49:05.055Z,80.63
2022-08-10T04:50:05.707Z,81.04
2022-08-10T04:51:04.758Z,80.83
2022-08-10T04:52:04.735Z,80.83
2022-08-10T04:53:04.714Z,80.53
2022-08-10T04:54:08.106Z,80.22
2022-08-10T04:55:04.646Z,80.19
2022-08-10T04:56:04.662Z,80.08
2022-08-10T04:57:04.637Z,80.08
2022-08-10T04:58:04.641Z,80.08
2022-08-10T04:59:05.060Z,79.88
2022-08-10T05:00:07.468Z,79.68
2022-08-10T05:01:05.622Z,79.44
2022-08-10T05:02:28.811Z,79.34
2022-08-10T05:03:05.543Z,79.24
2022-08-10T05:04:34.108Z,78.73
2022-08-10T05:05:05.854Z,78.73
2022-08-10T05:06:04.570Z,79.13
2022-08-10T05:07:04.504Z,79.00
2022-08-10T05:08:04.471Z,78.89
2022-08-10T05:09:04.819Z,78.79
2022-08-10T05:10:06.749Z,79.30
2022-08-10T05:11:04.442Z,78.79
2022-08-10T05:12:04.452Z,79.91
2022-08-10T05:13:04.421Z,79.20
2022-08-10T05:14:04.397Z,79.57
2022-08-10T05:15:04.732Z,78.25
2022-08-10T05:16:04.380Z,75.82
2022-08-10T05:17:04.372Z,76.19
2022-08-10T05:18:09.526Z,75.34
2022-08-10T05:19:05.409Z,74.43
2022-08-10T05:20:06.830Z,74.74
2022-08-10T05:21:04.338Z,74.70
2022-08-10T05:22:05.182Z,74.19
2022-08-10T05:23:04.296Z,72.78
2022-08-10T05:24:04.260Z,71.94
2022-08-10T05:25:04.552Z,72.24
2022-08-10T05:26:04.261Z,72.34
2022-08-10T05:27:10.430Z,72.24
2022-08-10T05:28:06.767Z,71.94
2022-08-10T05:29:04.189Z,71.91
2022-08-10T05:30:04.569Z,71.80
2022-08-10T05:31:04.167Z,71.80
2022-08-10T05:32:04.186Z,71.70
2022-08-10T05:33:08.564Z,71.70
2022-08-10T05:34:04.116Z,71.91
2022-08-10T05:35:05.557Z,71.70
2022-08-10T05:36:04.128Z,71.80
2022-08-10T05:37:04.097Z,71.91
2022-08-10T05:38:11.628Z,71.57
2022-08-10T05:39:05.129Z,71.37
2022-08-10T05:40:04.517Z,71.26
2022-08-10T05:41:04.045Z,72.17
2022-08-10T05:42:04.008Z,72.78
2022-08-10T05:43:04.038Z,72.88
2022-08-10T05:44:03.987Z,73.18
2022-08-10T05:45:04.305Z,72.58
2022-08-10T05:46:17.522Z,72.17
2022-08-10T05:47:06.778Z,72.68
2022-08-10T05:48:54.900Z,72.14
2022-08-10T05:49:04.958Z,71.84
2022-08-10T05:50:03.915Z,71.44
2022-08-10T05:51:04.264Z,71.33
2022-08-10T05:52:03.947Z,71.33
2022-08-10T05:53:59.952Z,70.59
2022-08-10T05:54:06.557Z,70.49
2022-08-10T05:55:03.867Z,70.29
2022-08-10T05:56:03.825Z,69.99
2022-08-10T05:57:04.194Z,70.69
2022-08-10T05:58:03.823Z,69.25
2022-08-10T05:59:03.824Z,69.15
2022-08-10T06:00:35.341Z,69.25
2022-08-10T06:01:04.836Z,68.74
2022-08-10T06:02:33.564Z,69.12
2022-08-10T06:03:05.084Z,67.91
2022-08-10T06:04:03.738Z,68.21
2022-08-10T06:05:03.734Z,68.21
2022-08-10T06:06:03.717Z,67.57
2022-08-10T06:07:03.704Z,68.28
2022-08-10T06:08:04.113Z,68.38
2022-08-10T06:09:03.683Z,67.34
2022-08-10T06:10:03.889Z,67.54
2022-08-10T06:12:24.131Z,67.54
2022-08-10T06:12:28.355Z,67.74
2022-08-10T06:13:05.071Z,66.60
2022-08-10T06:14:15.849Z,65.70
2022-08-10T06:15:05.929Z,63.40
2022-08-10T06:16:04.603Z,60.21
2022-08-10T06:17:03.598Z,59.35
2022-08-10T06:18:03.552Z,57.57
2022-08-10T06:19:03.882Z,56.21
2022-08-10T06:20:03.512Z,54.94
2022-08-10T06:21:03.529Z,54.31
2022-08-10T06:22:03.532Z,53.59
2022-08-10T06:23:03.501Z,53.06
2022-08-10T06:24:03.461Z,52.57
2022-08-10T06:25:32.399Z,52.37
2022-08-10T06:26:09.855Z,51.84
2022-08-10T06:27:04.433Z,51.25
2022-08-10T06:28:03.445Z,51.95
2022-08-10T06:29:04.170Z,50.82
2022-08-10T06:30:03.731Z,50.23
2022-08-10T06:31:04.422Z,48.64
2022-08-10T06:32:03.372Z,49.06
2022-08-10T06:33:03.353Z,49.23
2022-08-10T06:34:03.350Z,48.64
2022-08-10T06:35:03.760Z,48.79
2022-08-10T06:36:03.359Z,47.77
2022-08-10T06:37:03.346Z,47.43
2022-08-10T06:38:03.340Z,46.69
2022-08-10T06:39:23.287Z,45.54
2022-08-10T06:40:04.632Z,45.94
2022-08-10T06:41:03.271Z,46.12
2022-08-10T06:42:16.262Z,45.72
2022-08-10T06:43:04.258Z,46.47
2022-08-10T06:44:03.213Z,44.29
2022-08-10T06:45:03.522Z,44.76
2022-08-10T06:46:08.259Z,43.67
2022-08-10T06:47:04.172Z,43.87
2022-08-10T06:48:03.220Z,43.16
2022-08-10T06:49:03.141Z,43.46
2022-08-10T06:50:04.893Z,43.75
2022-08-10T06:51:04.553Z,43.46
2022-08-10T06:52:03.129Z,43.04
2022-08-10T06:53:03.138Z,44.15
2022-08-10T06:54:03.101Z,43.04
2022-08-10T06:55:05.171Z,42.64
2022-08-10T06:56:03.091Z,43.65
2022-08-10T06:57:18.051Z,43.21
2022-08-10T06:58:04.083Z,42.50
2022-08-10T06:59:03.069Z,41.59
2022-08-10T07:00:03.090Z,42.26
2022-08-10T07:01:03.120Z,42.05
2022-08-10T07:02:02.971Z,40.45
2022-08-10T07:03:03.411Z,41.99
2022-08-10T07:04:02.942Z,42.08
2022-08-10T07:05:02.940Z,42.36
2022-08-10T07:06:02.943Z,41.38
2022-08-10T07:07:02.915Z,41.99
2022-08-10T07:08:02.928Z,42.16
2022-08-10T07:09:03.342Z,41.97
2022-08-10T07:10:02.873Z,41.55
2022-08-10T07:11:02.872Z,41.33
2022-08-10T07:12:08.050Z,41.02
2022-08-10T07:13:03.842Z,40.00
2022-08-10T07:14:15.731Z,39.72
2022-08-10T07:15:03.832Z,40.01
2022-08-10T07:16:02.813Z,39.40
2022-08-10T07:17:02.835Z,40.33
2022-08-10T07:18:02.802Z,40.41
2022-08-10T07:19:02.762Z,40.43
2022-08-10T07:20:04.256Z,40.13
2022-08-10T07:21:02.744Z,41.16
2022-08-10T07:22:02.740Z,40.98
2022-08-10T07:23:55.360Z,41.20
2022-08-10T07:24:04.186Z,40.90
2022-08-10T07:25:03.065Z,40.86
2022-08-10T07:26:02.677Z,40.55
2022-08-10T07:27:09.803Z,40.37
2022-08-10T07:28:09.721Z,40.78
2022-08-10T07:29:52.900Z,40.96
2022-08-10T07:30:09.905Z,39.94
2022-08-10T07:31:36.826Z,40.13
2022-08-10T07:32:09.749Z,40.37
2022-08-10T07:33:09.719Z,39.87
2022-08-10T07:34:09.643Z,40.86
2022-08-10T07:35:09.659Z,40.56
2022-08-10T07:36:09.942Z,39.97
2022-08-10T07:37:09.694Z,41.02
2022-08-10T07:38:09.597Z,41.65
2022-08-10T07:39:09.625Z,41.55
2022-08-10T07:40:09.698Z,41.61
2022-08-10T07:41:09.943Z,40.72
2022-08-10T07:42:09.616Z,40.92
2022-08-10T07:43:09.585Z,41.22
2022-08-10T07:44:10.647Z,41.69
2022-08-10T07:45:10.029Z,40.72
2022-08-10T07:46:09.588Z,40.78
2022-08-10T07:47:10.505Z,40.19
2022-08-10T07:48:09.556Z,40.58
2022-08-10T07:49:15.321Z,40.47
2022-08-10T07:52:22.197Z,41.14
2022-08-10T07:53:21.733Z,41.47
2022-08-10T07:54:28.800Z,41.97
2022-08-10T07:56:04.296Z,41.53
2022-08-10T07:56:47.802Z,40.94
2022-08-10T07:57:31.865Z,41.36
2022-08-10T07:58:28.833Z,41.25
2022-08-10T07:59:29.697Z,41.97
2022-08-10T08:00:28.802Z,41.75
2022-08-10T08:01:28.785Z,42.07
2022-08-10T08:03:38.355Z,41.95
2022-08-10T08:04:44.855Z,41.65
2022-08-10T08:05:57.734Z,41.95
2022-08-10T08:06:38.736Z,41.95
2022-08-10T08:07:37.714Z,41.44
2022-08-10T08:08:37.682Z,41.30
2022-08-10T08:09:38.101Z,41.02
2022-08-10T08:10:38.664Z,41.02
2022-08-10T08:11:37.776Z,41.41
2022-08-10T08:12:38.582Z,41.10
2022-08-10T08:13:37.639Z,40.88
2022-08-10T08:14:38.025Z,40.35
2022-08-10T08:16:19.829Z,39.56
2022-08-10T08:16:38.601Z,39.44
2022-08-10T08:17:37.583Z,38.73
2022-08-10T08:18:37.609Z,37.93
2022-08-10T08:19:46.118Z,38.10
2022-08-10T08:20:38.561Z,37.71
2022-08-10T08:24:05.949Z,38.35
2022-08-10T08:24:06.551Z,37.81
2022-08-10T08:24:08.087Z,38.30
2022-08-10T08:24:39.098Z,38.98
2022-08-10T08:25:37.474Z,39.09
2022-08-10T08:26:37.482Z,39.40
2022-08-10T08:27:37.441Z,39.58
2022-08-10T08:28:37.451Z,38.79
2022-08-10T08:29:37.421Z,39.48
2022-08-10T08:30:37.924Z,39.46
2022-08-10T08:31:37.389Z,38.77
2022-08-10T08:32:38.430Z,38.37
2022-08-10T08:33:43.717Z,38.98
2022-08-10T08:34:38.372Z,39.48
2022-08-10T08:35:37.741Z,39.76
2022-08-10T08:36:37.322Z,39.25
2022-08-10T08:38:31.411Z,38.81
2022-08-10T08:38:38.314Z,37.85
2022-08-10T08:39:37.574Z,39.15
2022-08-10T08:40:37.733Z,39.11
2022-08-10T08:41:37.323Z,40.34
2022-08-10T08:42:37.593Z,40.39
2022-08-10T08:43:37.260Z,41.49
2022-08-10T08:44:37.593Z,41.63
2022-08-10T08:45:37.531Z,42.23
2022-08-10T08:46:38.233Z,42.52
2022-08-10T08:48:03.377Z,42.15
2022-08-10T08:48:38.225Z,42.43
2022-08-10T08:50:04.403Z,42.23
2022-08-10T08:50:38.181Z,41.83
2022-08-10T08:52:09.858Z,41.85
2022-08-10T08:52:38.307Z,42.65
2022-08-10T08:54:02.267Z,42.35
2022-08-10T08:54:38.543Z,42.94
2022-08-10T08:56:01.421Z,42.03
2022-08-10T08:56:38.093Z,41.83
2022-08-10T08:57:49.583Z,42.13
2022-08-10T08:58:38.073Z,41.83
2022-08-10T08:59:37.058Z,41.63
2022-08-10T09:00:37.699Z,41.04
2022-08-10T09:01:38.021Z,40.86
2022-08-10T09:02:37.258Z,40.86
2022-08-10T09:03:37.015Z,41.46
2022-08-10T09:04:37.007Z,41.66
2022-08-10T09:05:59.142Z,41.63
2022-08-10T09:06:37.950Z,41.33
2022-08-10T09:07:59.922Z,41.66
2022-08-10T09:08:37.920Z,41.73
2022-08-10T09:09:36.922Z,40.86
2022-08-10T09:10:37.667Z,40.56
2022-08-10T09:11:37.276Z,41.36
2022-08-10T09:12:37.010Z,41.46
2022-08-10T09:13:36.891Z,41.06
2022-08-10T09:14:36.861Z,41.16
2022-08-10T09:15:39.657Z,41.46
2022-08-10T09:16:36.831Z,40.96
2022-08-10T09:17:36.802Z,40.96
2022-08-10T09:18:36.792Z,40.74
2022-08-10T09:19:36.986Z,40.94
2022-08-10T09:20:37.258Z,40.94
2022-08-10T09:21:55.154Z,40.23
2022-08-10T09:22:37.833Z,40.23
2022-08-10T09:24:05.353Z,39.93
2022-08-10T09:24:37.722Z,39.55
2022-08-10T09:25:37.093Z,39.75
2022-08-10T09:26:36.703Z,40.03
2022-08-10T09:27:36.679Z,39.61
2022-08-10T09:28:36.702Z,39.79
2022-08-10T09:29:36.671Z,38.90
2022-08-10T09:30:38.539Z,39.00
2022-08-10T09:31:39.286Z,38.70
2022-08-10T09:36:15.121Z,39.40
2022-08-10T09:36:22.958Z,38.51
2022-08-10T09:36:27.823Z,39.40
2022-08-10T09:36:29.225Z,39.42
2022-08-10T09:36:37.959Z,39.22
2022-08-10T09:38:00.790Z,39.20
2022-08-10T09:38:37.592Z,38.01
2022-08-10T09:40:06.720Z,38.03
2022-08-10T09:41:01.101Z,38.62
2022-08-10T09:41:37.573Z,38.74
2022-08-10T09:42:36.673Z,39.31
2022-08-10T09:43:36.539Z,38.62
2022-08-10T09:44:58.094Z,38.13
2022-08-10T09:45:37.804Z,38.34
2022-08-10T09:46:36.485Z,38.82
2022-08-10T09:47:58.869Z,38.53
2022-08-10T09:48:37.500Z,38.13
2022-08-10T09:49:54.519Z,37.73
2022-08-10T09:51:20.977Z,38.53
2022-08-10T09:51:46.767Z,38.23
2022-08-10T09:52:37.596Z,37.73
2022-08-10T09:53:36.351Z,37.34
2022-08-10T09:54:36.342Z,37.55
2022-08-10T09:56:18.966Z,37.53
2022-08-10T09:56:37.632Z,37.95
2022-08-10T09:57:44.597Z,38.15
2022-08-10T09:58:37.302Z,37.55
2022-08-10T09:59:59.889Z,38.13
2022-08-10T10:00:37.282Z,37.63
2022-08-10T10:02:00.655Z,37.73
2022-08-10T10:02:37.271Z,37.83
2022-08-10T10:03:36.366Z,38.80
2022-08-10T10:04:36.253Z,37.51
2022-08-10T10:05:36.202Z,37.53
2022-08-10T10:06:36.181Z,37.62
2022-08-10T10:07:36.811Z,37.22
2022-08-10T10:08:39.524Z,36.52
2022-08-10T10:09:37.143Z,36.92
2022-08-10T10:10:36.164Z,36.94
2022-08-10T10:11:37.142Z,35.85
2022-08-10T10:12:36.131Z,36.94
2022-08-10T10:13:49.008Z,37.04
2022-08-10T10:14:37.113Z,36.94
2022-08-10T10:15:36.062Z,37.53
2022-08-10T10:16:36.046Z,37.53
2022-08-10T10:17:36.140Z,37.53
2022-08-10T10:18:36.359Z,37.32
2022-08-10T10:19:40.329Z,37.32
2022-08-10T10:20:36.074Z,37.63
2022-08-10T10:21:55.047Z,37.83
2022-08-10T10:22:36.979Z,37.73
2022-08-10T10:23:35.988Z,38.21
2022-08-10T10:24:36.408Z,38.09
2022-08-10T10:25:50.706Z,37.28
2022-08-10T10:26:36.930Z,37.08
2022-08-10T10:27:36.040Z,36.49
2022-08-10T10:29:11.333Z,35.99
2022-08-10T10:29:56.919Z,36.10
2022-08-10T10:30:37.261Z,36.80
2022-08-10T10:31:35.872Z,36.71
2022-08-10T10:32:37.354Z,35.91
2022-08-10T10:33:35.899Z,35.60
2022-08-10T10:34:35.859Z,36.10
2022-08-10T10:35:36.145Z,35.30
2022-08-10T10:36:35.809Z,36.10
2022-08-10T10:38:01.247Z,35.11
2022-08-10T10:38:36.770Z,35.60
2022-08-10T10:39:35.834Z,35.00
2022-08-10T10:40:35.759Z,35.00
2022-08-10T10:42:03.406Z,34.61
2022-08-10T10:42:45.529Z,35.30
2022-08-10T10:43:36.724Z,35.11
2022-08-10T10:44:40.205Z,35.30
2022-08-10T10:45:41.681Z,34.91
2022-08-10T10:46:37.024Z,34.92
2022-08-10T10:47:35.771Z,35.91
2022-08-10T10:48:35.630Z,36.21
2022-08-10T10:49:35.638Z,36.49
2022-08-10T10:50:35.644Z,35.68
2022-08-10T10:51:35.598Z,35.50
2022-08-10T10:52:35.960Z,35.19
2022-08-10T10:53:35.590Z,35.21
2022-08-10T10:54:35.568Z,35.70
2022-08-10T10:56:13.803Z,36.37
2022-08-10T10:56:36.576Z,35.38
2022-08-10T10:57:59.202Z,35.27
2022-08-10T10:58:36.529Z,35.27
2022-08-10T10:59:55.641Z,35.47
2022-08-10T11:00:36.504Z,35.98
2022-08-10T11:01:35.556Z,34.39
2022-08-10T11:02:35.457Z,34.50
2022-08-10T11:03:35.598Z,34.81
2022-08-10T11:04:35.439Z,35.00
2022-08-10T11:05:35.416Z,35.21
2022-08-10T11:06:40.620Z,35.89
2022-08-10T11:07:36.496Z,35.38
2022-08-10T11:08:36.630Z,34.78
2022-08-10T11:10:03.962Z,34.88
2022-08-10T11:10:46.262Z,35.07
2022-08-10T11:12:00.321Z,34.58
2022-08-10T11:12:36.330Z,34.88
2022-08-10T11:14:27.037Z,34.97
2022-08-10T11:14:36.326Z,35.45
2022-08-10T11:15:36.447Z,33.49
2022-08-10T11:16:36.281Z,33.49
2022-08-10T11:17:35.498Z,34.38
2022-08-10T11:18:35.649Z,34.67
2022-08-10T11:20:01.462Z,34.08
2022-08-10T11:20:36.289Z,34.95
2022-08-10T11:21:35.250Z,34.56
2022-08-10T11:22:36.741Z,34.27
2022-08-10T11:23:35.196Z,34.27
2022-08-10T11:24:47.893Z,34.38
2022-08-10T11:25:36.162Z,34.18
2022-08-10T11:26:35.202Z,34.58
2022-08-10T11:27:35.226Z,34.88
2022-08-10T11:28:37.142Z,34.56
2022-08-10T11:29:35.142Z,34.06
2022-08-10T11:30:35.459Z,34.56
2022-08-10T11:31:35.118Z,35.25
2022-08-10T11:32:35.095Z,35.24
2022-08-10T11:33:46.684Z,34.76
2022-08-10T11:34:47.158Z,34.76
2022-08-10T11:35:36.392Z,33.77
2022-08-10T11:36:35.419Z,33.77
2022-08-10T11:38:28.671Z,35.05
2022-08-10T11:38:47.467Z,34.94
2022-08-10T11:39:36.056Z,34.36
2022-08-10T11:40:35.031Z,34.17
2022-08-10T11:42:09.751Z,33.59
2022-08-10T11:42:36.637Z,34.06
2022-08-10T11:43:34.980Z,34.76
2022-08-10T11:44:34.908Z,33.26
2022-08-10T11:45:34.955Z,33.64
2022-08-10T11:46:35.217Z,34.13
2022-08-10T11:47:34.902Z,34.92
2022-08-10T11:48:53.238Z,33.34
2022-08-10T11:49:35.871Z,34.03
2022-08-10T11:50:35.304Z,33.92
2022-08-10T11:51:34.838Z,34.00
2022-08-10T11:52:34.905Z,33.41
2022-08-10T11:53:38.801Z,32.82
2022-08-10T11:54:34.906Z,33.53
2022-08-10T11:55:35.284Z,33.42
2022-08-10T11:56:34.819Z,34.00
2022-08-10T11:57:53.534Z,32.34
2022-08-10T11:58:35.779Z,33.15
2022-08-10T11:59:34.737Z,33.16
2022-08-10T12:00:35.171Z,33.95
2022-08-10T12:01:34.727Z,34.63
2022-08-10T12:02:34.768Z,33.62
2022-08-10T12:03:35.071Z,32.56
2022-08-10T12:04:34.649Z,33.36
2022-08-10T12:05:52.592Z,33.84
2022-08-10T12:06:54.627Z,33.33
2022-08-10T12:08:54.555Z,32.85
2022-08-10T12:10:06.365Z,33.54
2022-08-10T12:10:09.306Z,33.25
2022-08-10T12:10:40.647Z,33.62
2022-08-10T12:11:34.602Z,33.72
2022-08-10T12:12:34.572Z,33.13
2022-08-10T12:13:34.568Z,32.93
2022-08-10T12:14:34.588Z,32.93
2022-08-10T12:15:34.645Z,33.62
2022-08-10T12:16:34.527Z,34.00
2022-08-10T12:17:34.515Z,33.39
2022-08-10T12:18:34.597Z,33.20
2022-08-10T12:19:59.857Z,32.80
2022-08-10T12:20:35.557Z,33.29
2022-08-10T12:21:34.493Z,33.01
2022-08-10T12:22:34.518Z,33.41
2022-08-10T12:23:39.252Z,33.29
2022-08-10T12:24:35.399Z,33.28
2022-08-10T12:25:56.985Z,32.59
2022-08-10T12:26:35.819Z,32.10
2022-08-10T12:27:34.374Z,32.48
2022-08-10T12:28:49.988Z,31.90
2022-08-10T12:29:37.085Z,33.18
2022-08-10T12:30:34.659Z,33.58
2022-08-10T12:31:34.331Z,33.07
2022-08-10T12:32:34.291Z,32.57
2022-08-10T12:34:01.511Z,32.38
2022-08-10T12:34:35.309Z,31.88
2022-08-10T12:35:34.261Z,32.87
2022-08-10T12:36:34.693Z,32.38
2022-08-10T12:37:34.240Z,32.77
2022-08-10T12:38:34.225Z,33.07
2022-08-10T12:39:34.281Z,32.10
2022-08-10T12:40:36.056Z,32.79
2022-08-10T12:41:43.658Z,33.08
2022-08-10T12:43:13.368Z,32.21
2022-08-10T12:44:06.299Z,32.70
2022-08-10T12:44:42.370Z,32.41
2022-08-10T12:45:35.125Z,32.41
2022-08-10T12:46:34.230Z,32.60
2022-08-10T12:47:34.089Z,33.28
2022-08-10T12:48:34.408Z,32.79
2022-08-10T12:49:34.073Z,32.20
2022-08-10T12:50:34.191Z,32.20
2022-08-10T12:51:34.129Z,32.29
2022-08-10T12:52:34.060Z,32.48
2022-08-10T12:53:34.148Z,32.77
2022-08-10T12:54:34.009Z,31.88
2022-08-10T12:55:34.003Z,31.80